sensor_id;sensor_type;location;lat;lon;timestamp;P1;durP1;ratioP1;P2;durP2;ratioP2
57155;SDS011;43023;59.928;10.682;2022-09-09T00:06:23;1.15;;;0.40;;
57155;SDS011;43023;59.928;10.682;2022-09-09T00:09:06;0.75;;;0.38;;
57155;SDS011;43023;59.928;10.682;2022-09-09T00:11:49;1.27;;;0.55;;
57155;SDS011;43023;59.928;10.682;2022-09-09T00:16:44;0.77;;;0.60;;
57155;SDS011;43023;59.928;10.682;2022-09-09T00:19:31;0.75;;;0.30;;
57155;SDS011;43023;59.928;10.682;2022-09-09T00:22:03;0.63;;;0.50;;
57155;SDS011;43023;59.928;10.682;2022-09-09T00:24:49;1.98;;;0.40;;
57155;SDS011;43023;59.928;10.682;2022-09-09T00:32:21;0.93;;;0.50;;
57155;SDS011;43023;59.928;10.682;2022-09-09T00:34:49;1.08;;;0.20;;
57155;SDS011;43023;59.928;10.682;2022-09-09T00:37:17;2.55;;;0.50;;
57155;SDS011;43023;59.928;10.682;2022-09-09T00:39:44;1.25;;;0.32;;
57155;SDS011;43023;59.928;10.682;2022-09-09T00:47:38;3.03;;;0.70;;
57155;SDS011;43023;59.928;10.682;2022-09-09T00:58:06;0.75;;;0.20;;
57155;SDS011;43023;59.928;10.682;2022-09-09T01:08:36;2.08;;;0.40;;
57155;SDS011;43023;59.928;10.682;2022-09-09T01:11:05;2.63;;;0.77;;
57155;SDS011;43023;59.928;10.682;2022-09-09T01:13:33;0.20;;;0.20;;
57155;SDS011;43023;59.928;10.682;2022-09-09T01:16:01;1.90;;;0.45;;
57155;SDS011;43023;59.928;10.682;2022-09-09T01:18:32;4.10;;;0.50;;
57155;SDS011;43023;59.928;10.682;2022-09-09T01:26:18;0.30;;;0.30;;
57155;SDS011;43023;59.928;10.682;2022-09-09T01:28:46;0.73;;;0.30;;
57155;SDS011;43023;59.928;10.682;2022-09-09T01:31:18;1.40;;;0.52;;
57155;SDS011;43023;59.928;10.682;2022-09-09T01:33:45;0.77;;;0.32;;
57155;SDS011;43023;59.928;10.682;2022-09-09T01:36:17;1.02;;;0.35;;
57155;SDS011;43023;59.928;10.682;2022-09-09T01:38:44;0.80;;;0.40;;
57155;SDS011;43023;59.928;10.682;2022-09-09T01:41:10;0.50;;;0.20;;
57155;SDS011;43023;59.928;10.682;2022-09-09T01:43:36;0.73;;;0.47;;
57155;SDS011;43023;59.928;10.682;2022-09-09T01:46:02;0.22;;;0.22;;
57155;SDS011;43023;59.928;10.682;2022-09-09T01:48:28;0.50;;;0.22;;
57155;SDS011;43023;59.928;10.682;2022-09-09T01:50:55;0.20;;;0.20;;
57155;SDS011;43023;59.928;10.682;2022-09-09T01:53:21;0.30;;;0.13;;
57155;SDS011;43023;59.928;10.682;2022-09-09T01:58:55;0.20;;;0.20;;
57155;SDS011;43023;59.928;10.682;2022-09-09T02:01:27;0.98;;;0.30;;
57155;SDS011;43023;59.928;10.682;2022-09-09T02:03:56;0.20;;;0.15;;
57155;SDS011;43023;59.928;10.682;2022-09-09T02:08:55;0.45;;;0.30;;
57155;SDS011;43023;59.928;10.682;2022-09-09T02:11:23;0.52;;;0.10;;
57155;SDS011;43023;59.928;10.682;2022-09-09T02:13:51;0.90;;;0.20;;
57155;SDS011;43023;59.928;10.682;2022-09-09T02:16:29;0.20;;;0.20;;
57155;SDS011;43023;59.928;10.682;2022-09-09T02:18:59;1.23;;;0.30;;
57155;SDS011;43023;59.928;10.682;2022-09-09T02:21:27;0.35;;;0.10;;
57155;SDS011;43023;59.928;10.682;2022-09-09T02:23:54;0.65;;;0.20;;
57155;SDS011;43023;59.928;10.682;2022-09-09T02:26:22;0.57;;;0.20;;
57155;SDS011;43023;59.928;10.682;2022-09-09T02:28:50;0.80;;;0.30;;
57155;SDS011;43023;59.928;10.682;2022-09-09T02:31:17;0.85;;;0.38;;
57155;SDS011;43023;59.928;10.682;2022-09-09T02:33:47;0.15;;;0.15;;
57155;SDS011;43023;59.928;10.682;2022-09-09T02:36:17;0.40;;;0.20;;
57155;SDS011;43023;59.928;10.682;2022-09-09T02:38:45;0.10;;;0.10;;
57155;SDS011;43023;59.928;10.682;2022-09-09T02:41:17;0.22;;;0.20;;
57155;SDS011;43023;59.928;10.682;2022-09-09T02:43:43;0.57;;;0.40;;
57155;SDS011;43023;59.928;10.682;2022-09-09T02:46:24;0.65;;;0.20;;
57155;SDS011;43023;59.928;10.682;2022-09-09T02:54:00;0.50;;;0.15;;
57155;SDS011;43023;59.928;10.682;2022-09-09T02:56:28;0.28;;;0.20;;
57155;SDS011;43023;59.928;10.682;2022-09-09T02:58:55;0.13;;;0.10;;
57155;SDS011;43023;59.928;10.682;2022-09-09T03:01:21;0.10;;;0.10;;
57155;SDS011;43023;59.928;10.682;2022-09-09T03:03:47;0.50;;;0.30;;
57155;SDS011;43023;59.928;10.682;2022-09-09T03:06:13;0.57;;;0.10;;
57155;SDS011;43023;59.928;10.682;2022-09-09T03:08:39;1.17;;;0.25;;
57155;SDS011;43023;59.928;10.682;2022-09-09T03:11:07;0.40;;;0.20;;
57155;SDS011;43023;59.928;10.682;2022-09-09T03:13:34;0.20;;;0.20;;
57155;SDS011;43023;59.928;10.682;2022-09-09T03:16:00;0.63;;;0.40;;
57155;SDS011;43023;59.928;10.682;2022-09-09T03:18:26;0.40;;;0.30;;
57155;SDS011;43023;59.928;10.682;2022-09-09T03:20:53;0.80;;;0.10;;
57155;SDS011;43023;59.928;10.682;2022-09-09T03:23:19;0.30;;;0.28;;
57155;SDS011;43023;59.928;10.682;2022-09-09T03:25:49;0.20;;;0.20;;
57155;SDS011;43023;59.928;10.682;2022-09-09T03:28:17;0.20;;;0.20;;
57155;SDS011;43023;59.928;10.682;2022-09-09T03:30:43;0.30;;;0.30;;
57155;SDS011;43023;59.928;10.682;2022-09-09T03:33:09;0.13;;;0.13;;
57155;SDS011;43023;59.928;10.682;2022-09-09T03:35:35;0.10;;;0.10;;
57155;SDS011;43023;59.928;10.682;2022-09-09T03:38:01;1.38;;;0.15;;
57155;SDS011;43023;59.928;10.682;2022-09-09T03:40:27;0.17;;;0.13;;
57155;SDS011;43023;59.928;10.682;2022-09-09T03:42:53;1.30;;;0.20;;
57155;SDS011;43023;59.928;10.682;2022-09-09T03:45:19;0.10;;;0.10;;
57155;SDS011;43023;59.928;10.682;2022-09-09T03:47:45;0.10;;;0.10;;
57155;SDS011;43023;59.928;10.682;2022-09-09T03:50:11;1.05;;;0.20;;
57155;SDS011;43023;59.928;10.682;2022-09-09T03:52:38;0.38;;;0.30;;
57155;SDS011;43023;59.928;10.682;2022-09-09T03:55:04;0.65;;;0.30;;
57155;SDS011;43023;59.928;10.682;2022-09-09T03:57:31;0.15;;;0.10;;
57155;SDS011;43023;59.928;10.682;2022-09-09T03:59:59;1.00;;;0.20;;
57155;SDS011;43023;59.928;10.682;2022-09-09T04:02:26;0.20;;;0.20;;
57155;SDS011;43023;59.928;10.682;2022-09-09T04:04:52;1.05;;;0.22;;
57155;SDS011;43023;59.928;10.682;2022-09-09T04:07:18;2.63;;;0.35;;
57155;SDS011;43023;59.928;10.682;2022-09-09T04:09:44;0.90;;;0.22;;
57155;SDS011;43023;59.928;10.682;2022-09-09T04:12:10;1.10;;;0.80;;
57155;SDS011;43023;59.928;10.682;2022-09-09T04:14:38;1.38;;;0.30;;
57155;SDS011;43023;59.928;10.682;2022-09-09T04:17:04;0.20;;;0.10;;
57155;SDS011;43023;59.928;10.682;2022-09-09T04:19:31;0.52;;;0.25;;
57155;SDS011;43023;59.928;10.682;2022-09-09T04:21:57;1.25;;;0.32;;
57155;SDS011;43023;59.928;10.682;2022-09-09T04:24:24;1.27;;;0.30;;
57155;SDS011;43023;59.928;10.682;2022-09-09T04:26:52;0.88;;;0.20;;
57155;SDS011;43023;59.928;10.682;2022-09-09T04:29:18;0.75;;;0.20;;
57155;SDS011;43023;59.928;10.682;2022-09-09T04:31:44;0.47;;;0.25;;
57155;SDS011;43023;59.928;10.682;2022-09-09T04:34:10;0.80;;;0.30;;
57155;SDS011;43023;59.928;10.682;2022-09-09T04:36:36;1.55;;;0.50;;
57155;SDS011;43023;59.928;10.682;2022-09-09T04:39:04;1.40;;;0.40;;
57155;SDS011;43023;59.928;10.682;2022-09-09T04:41:30;0.73;;;0.47;;
57155;SDS011;43023;59.928;10.682;2022-09-09T04:43:56;0.68;;;0.50;;
57155;SDS011;43023;59.928;10.682;2022-09-09T04:46:22;0.20;;;0.20;;
57155;SDS011;43023;59.928;10.682;2022-09-09T04:48:49;2.47;;;0.30;;
57155;SDS011;43023;59.928;10.682;2022-09-09T04:51:16;0.43;;;0.35;;
57155;SDS011;43023;59.928;10.682;2022-09-09T04:53:42;1.15;;;0.40;;
57155;SDS011;43023;59.928;10.682;2022-09-09T04:56:12;1.85;;;0.38;;
57155;SDS011;43023;59.928;10.682;2022-09-09T04:58:39;3.38;;;0.60;;
57155;SDS011;43023;59.928;10.682;2022-09-09T05:01:08;0.52;;;0.20;;
57155;SDS011;43023;59.928;10.682;2022-09-09T05:03:34;3.72;;;0.77;;
57155;SDS011;43023;59.928;10.682;2022-09-09T05:06:04;1.48;;;0.43;;
57155;SDS011;43023;59.928;10.682;2022-09-09T05:08:30;0.68;;;0.30;;
57155;SDS011;43023;59.928;10.682;2022-09-09T05:10:56;4.25;;;0.40;;
57155;SDS011;43023;59.928;10.682;2022-09-09T05:13:24;0.73;;;0.38;;
57155;SDS011;43023;59.928;10.682;2022-09-09T05:15:53;2.97;;;0.45;;
57155;SDS011;43023;59.928;10.682;2022-09-09T05:18:19;1.10;;;0.40;;
57155;SDS011;43023;59.928;10.682;2022-09-09T05:20:47;0.95;;;0.60;;
57155;SDS011;43023;59.928;10.682;2022-09-09T05:23:13;1.35;;;0.47;;
57155;SDS011;43023;59.928;10.682;2022-09-09T05:25:39;4.20;;;0.57;;
57155;SDS011;43023;59.928;10.682;2022-09-09T05:28:07;1.73;;;0.50;;
57155;SDS011;43023;59.928;10.682;2022-09-09T05:30:33;3.05;;;0.65;;
57155;SDS011;43023;59.928;10.682;2022-09-09T05:32:59;1.30;;;0.63;;
57155;SDS011;43023;59.928;10.682;2022-09-09T05:35:26;2.85;;;0.60;;
57155;SDS011;43023;59.928;10.682;2022-09-09T05:37:52;2.05;;;0.25;;
57155;SDS011;43023;59.928;10.682;2022-09-09T05:40:19;0.45;;;0.40;;
57155;SDS011;43023;59.928;10.682;2022-09-09T05:42:46;1.15;;;0.30;;
57155;SDS011;43023;59.928;10.682;2022-09-09T05:45:12;2.40;;;0.60;;
57155;SDS011;43023;59.928;10.682;2022-09-09T05:47:38;0.65;;;0.47;;
57155;SDS011;43023;59.928;10.682;2022-09-09T05:50:04;1.25;;;0.35;;
57155;SDS011;43023;59.928;10.682;2022-09-09T05:52:30;0.30;;;0.30;;
57155;SDS011;43023;59.928;10.682;2022-09-09T05:54:57;0.95;;;0.40;;
57155;SDS011;43023;59.928;10.682;2022-09-09T05:57:24;0.50;;;0.30;;
57155;SDS011;43023;59.928;10.682;2022-09-09T05:59:50;0.20;;;0.20;;
57155;SDS011;43023;59.928;10.682;2022-09-09T06:02:16;0.40;;;0.40;;
57155;SDS011;43023;59.928;10.682;2022-09-09T06:04:42;0.45;;;0.35;;
57155;SDS011;43023;59.928;10.682;2022-09-09T06:07:08;2.72;;;0.30;;
57155;SDS011;43023;59.928;10.682;2022-09-09T06:09:34;1.63;;;0.50;;
57155;SDS011;43023;59.928;10.682;2022-09-09T06:12:00;0.45;;;0.20;;
57155;SDS011;43023;59.928;10.682;2022-09-09T06:14:26;0.30;;;0.20;;
57155;SDS011;43023;59.928;10.682;2022-09-09T06:16:52;2.00;;;0.50;;
57155;SDS011;43023;59.928;10.682;2022-09-09T06:19:18;1.33;;;0.70;;
57155;SDS011;43023;59.928;10.682;2022-09-09T06:21:45;1.77;;;0.50;;
57155;SDS011;43023;59.928;10.682;2022-09-09T06:24:12;1.80;;;0.38;;
57155;SDS011;43023;59.928;10.682;2022-09-09T06:26:42;0.20;;;0.20;;
57155;SDS011;43023;59.928;10.682;2022-09-09T06:29:08;0.30;;;0.30;;
57155;SDS011;43023;59.928;10.682;2022-09-09T06:31:35;4.35;;;0.28;;
57155;SDS011;43023;59.928;10.682;2022-09-09T06:34:02;1.02;;;0.40;;
57155;SDS011;43023;59.928;10.682;2022-09-09T06:36:30;0.50;;;0.15;;
57155;SDS011;43023;59.928;10.682;2022-09-09T06:38:56;2.45;;;0.10;;
57155;SDS011;43023;59.928;10.682;2022-09-09T06:41:24;2.22;;;0.50;;
57155;SDS011;43023;59.928;10.682;2022-09-09T06:43:51;1.95;;;0.30;;
57155;SDS011;43023;59.928;10.682;2022-09-09T06:46:18;3.63;;;0.40;;
57155;SDS011;43023;59.928;10.682;2022-09-09T06:48:45;1.65;;;0.30;;
57155;SDS011;43023;59.928;10.682;2022-09-09T06:53:41;0.90;;;0.28;;
57155;SDS011;43023;59.928;10.682;2022-09-09T06:58:39;2.60;;;0.30;;
57155;SDS011;43023;59.928;10.682;2022-09-09T07:01:09;1.17;;;0.63;;
57155;SDS011;43023;59.928;10.682;2022-09-09T07:03:37;2.55;;;0.30;;
57155;SDS011;43023;59.928;10.682;2022-09-09T07:06:03;0.50;;;0.25;;
57155;SDS011;43023;59.928;10.682;2022-09-09T07:08:29;1.30;;;0.75;;
57155;SDS011;43023;59.928;10.682;2022-09-09T07:11:01;2.50;;;0.45;;
57155;SDS011;43023;59.928;10.682;2022-09-09T07:13:29;0.35;;;0.30;;
57155;SDS011;43023;59.928;10.682;2022-09-09T07:16:02;3.88;;;0.45;;
57155;SDS011;43023;59.928;10.682;2022-09-09T07:18:28;1.65;;;0.40;;
57155;SDS011;43023;59.928;10.682;2022-09-09T07:20:55;0.85;;;0.20;;
57155;SDS011;43023;59.928;10.682;2022-09-09T07:23:22;1.95;;;0.30;;
57155;SDS011;43023;59.928;10.682;2022-09-09T07:25:48;1.02;;;0.20;;
57155;SDS011;43023;59.928;10.682;2022-09-09T07:28:15;1.30;;;0.30;;
57155;SDS011;43023;59.928;10.682;2022-09-09T07:30:41;0.68;;;0.55;;
57155;SDS011;43023;59.928;10.682;2022-09-09T07:33:07;0.57;;;0.55;;
57155;SDS011;43023;59.928;10.682;2022-09-09T07:35:34;0.50;;;0.30;;
57155;SDS011;43023;59.928;10.682;2022-09-09T07:38:02;0.45;;;0.38;;
57155;SDS011;43023;59.928;10.682;2022-09-09T07:40:29;0.60;;;0.30;;
57155;SDS011;43023;59.928;10.682;2022-09-09T07:42:55;0.25;;;0.20;;
57155;SDS011;43023;59.928;10.682;2022-09-09T07:45:21;0.40;;;0.20;;
57155;SDS011;43023;59.928;10.682;2022-09-09T07:47:47;2.80;;;0.20;;
57155;SDS011;43023;59.928;10.682;2022-09-09T07:50:13;0.73;;;0.30;;
57155;SDS011;43023;59.928;10.682;2022-09-09T07:52:40;0.70;;;0.30;;
57155;SDS011;43023;59.928;10.682;2022-09-09T07:55:06;0.30;;;0.20;;
57155;SDS011;43023;59.928;10.682;2022-09-09T07:57:32;1.35;;;0.20;;
57155;SDS011;43023;59.928;10.682;2022-09-09T07:59:58;0.35;;;0.22;;
57155;SDS011;43023;59.928;10.682;2022-09-09T08:02:24;0.20;;;0.20;;
57155;SDS011;43023;59.928;10.682;2022-09-09T08:04:52;0.13;;;0.10;;
57155;SDS011;43023;59.928;10.682;2022-09-09T08:07:18;1.55;;;0.17;;
57155;SDS011;43023;59.928;10.682;2022-09-09T08:09:46;1.02;;;0.55;;
57155;SDS011;43023;59.928;10.682;2022-09-09T08:12:12;0.30;;;0.30;;
57155;SDS011;43023;59.928;10.682;2022-09-09T08:14:39;0.50;;;0.17;;
57155;SDS011;43023;59.928;10.682;2022-09-09T08:17:05;0.30;;;0.20;;
57155;SDS011;43023;59.928;10.682;2022-09-09T08:19:31;0.63;;;0.20;;
57155;SDS011;43023;59.928;10.682;2022-09-09T08:22:01;0.22;;;0.20;;
57155;SDS011;43023;59.928;10.682;2022-09-09T08:24:28;0.35;;;0.20;;
57155;SDS011;43023;59.928;10.682;2022-09-09T08:26:54;0.20;;;0.20;;
57155;SDS011;43023;59.928;10.682;2022-09-09T08:29:21;0.20;;;0.20;;
57155;SDS011;43023;59.928;10.682;2022-09-09T08:34:14;1.85;;;0.30;;
57155;SDS011;43023;59.928;10.682;2022-09-09T08:36:42;1.00;;;0.20;;
57155;SDS011;43023;59.928;10.682;2022-09-09T08:39:09;0.82;;;0.20;;
57155;SDS011;43023;59.928;10.682;2022-09-09T08:51:40;0.35;;;0.30;;
57155;SDS011;43023;59.928;10.682;2022-09-09T08:54:07;0.10;;;0.10;;
57155;SDS011;43023;59.928;10.682;2022-09-09T08:56:35;0.20;;;0.20;;
57155;SDS011;43023;59.928;10.682;2022-09-09T08:59:02;0.20;;;0.20;;
57155;SDS011;43023;59.928;10.682;2022-09-09T09:11:39;0.17;;;0.10;;
57155;SDS011;43023;59.928;10.682;2022-09-09T09:14:28;0.32;;;0.30;;
57155;SDS011;43023;59.928;10.682;2022-09-09T09:16:55;1.65;;;0.20;;
57155;SDS011;43023;59.928;10.682;2022-09-09T09:19:22;0.63;;;0.10;;
57155;SDS011;43023;59.928;10.682;2022-09-09T09:26:41;0.25;;;0.20;;
57155;SDS011;43023;59.928;10.682;2022-09-09T09:29:14;0.10;;;0.10;;
57155;SDS011;43023;59.928;10.682;2022-09-09T09:31:58;0.30;;;0.30;;
57155;SDS011;43023;59.928;10.682;2022-09-09T09:34:27;0.20;;;0.10;;
57155;SDS011;43023;59.928;10.682;2022-09-09T09:36:57;0.10;;;0.10;;
57155;SDS011;43023;59.928;10.682;2022-09-09T09:39:30;0.15;;;0.10;;
57155;SDS011;43023;59.928;10.682;2022-09-09T09:42:10;0.20;;;0.20;;
57155;SDS011;43023;59.928;10.682;2022-09-09T09:44:40;0.85;;;0.25;;
57155;SDS011;43023;59.928;10.682;2022-09-09T09:49:54;1.85;;;0.30;;
57155;SDS011;43023;59.928;10.682;2022-09-09T09:52:24;1.65;;;0.40;;
57155;SDS011;43023;59.928;10.682;2022-09-09T09:54:51;0.10;;;0.10;;
57155;SDS011;43023;59.928;10.682;2022-09-09T09:57:18;0.38;;;0.10;;
57155;SDS011;43023;59.928;10.682;2022-09-09T09:59:49;2.10;;;0.20;;
57155;SDS011;43023;59.928;10.682;2022-09-09T10:02:31;0.70;;;0.20;;
57155;SDS011;43023;59.928;10.682;2022-09-09T10:05:16;1.27;;;0.30;;
57155;SDS011;43023;59.928;10.682;2022-09-09T10:07:43;1.67;;;0.10;;
57155;SDS011;43023;59.928;10.682;2022-09-09T10:10:56;0.30;;;0.10;;
57155;SDS011;43023;59.928;10.682;2022-09-09T10:15:52;0.20;;;0.13;;
57155;SDS011;43023;59.928;10.682;2022-09-09T10:28:58;1.25;;;0.20;;
57155;SDS011;43023;59.928;10.682;2022-09-09T10:38:53;0.38;;;0.10;;
57155;SDS011;43023;59.928;10.682;2022-09-09T10:43:57;0.50;;;0.20;;
57155;SDS011;43023;59.928;10.682;2022-09-09T10:47:05;1.05;;;0.10;;
57155;SDS011;43023;59.928;10.682;2022-09-09T10:54:23;0.03;;;0.03;;
57155;SDS011;43023;59.928;10.682;2022-09-09T10:56:56;0.20;;;0.20;;
57155;SDS011;43023;59.928;10.682;2022-09-09T10:59:25;0.00;;;0.00;;
57155;SDS011;43023;59.928;10.682;2022-09-09T11:01:53;0.47;;;0.20;;
57155;SDS011;43023;59.928;10.682;2022-09-09T11:04:22;1.27;;;0.35;;
57155;SDS011;43023;59.928;10.682;2022-09-09T11:06:49;1.65;;;0.17;;
57155;SDS011;43023;59.928;10.682;2022-09-09T11:09:18;0.30;;;0.30;;
57155;SDS011;43023;59.928;10.682;2022-09-09T11:11:48;0.10;;;0.08;;
57155;SDS011;43023;59.928;10.682;2022-09-09T11:14:19;0.68;;;0.28;;
57155;SDS011;43023;59.928;10.682;2022-09-09T11:16:47;0.20;;;0.10;;
57155;SDS011;43023;59.928;10.682;2022-09-09T11:19:17;0.20;;;0.10;;
57155;SDS011;43023;59.928;10.682;2022-09-09T11:21:47;1.10;;;0.22;;
57155;SDS011;43023;59.928;10.682;2022-09-09T11:24:20;2.15;;;0.10;;
57155;SDS011;43023;59.928;10.682;2022-09-09T11:29:23;0.47;;;0.10;;
57155;SDS011;43023;59.928;10.682;2022-09-09T11:32:38;1.08;;;0.20;;
57155;SDS011;43023;59.928;10.682;2022-09-09T11:34:50;0.43;;;0.20;;
57155;SDS011;43023;59.928;10.682;2022-09-09T11:42:24;0.10;;;0.10;;
57155;SDS011;43023;59.928;10.682;2022-09-09T11:44:50;0.50;;;0.15;;
57155;SDS011;43023;59.928;10.682;2022-09-09T11:47:22;0.85;;;0.28;;
57155;SDS011;43023;59.928;10.682;2022-09-09T11:49:51;0.10;;;0.10;;
57155;SDS011;43023;59.928;10.682;2022-09-09T11:52:36;0.00;;;0.00;;
57155;SDS011;43023;59.928;10.682;2022-09-09T11:58:02;0.20;;;0.10;;
57155;SDS011;43023;59.928;10.682;2022-09-09T12:00:45;0.32;;;0.15;;
57155;SDS011;43023;59.928;10.682;2022-09-09T12:05:56;0.00;;;0.00;;
57155;SDS011;43023;59.928;10.682;2022-09-09T12:08:26;0.95;;;0.28;;
57155;SDS011;43023;59.928;10.682;2022-09-09T12:10:54;0.10;;;0.10;;
57155;SDS011;43023;59.928;10.682;2022-09-09T12:13:21;0.20;;;0.10;;
57155;SDS011;43023;59.928;10.682;2022-09-09T12:15:58;0.82;;;0.20;;
57155;SDS011;43023;59.928;10.682;2022-09-09T12:18:34;0.55;;;0.10;;
57155;SDS011;43023;59.928;10.682;2022-09-09T12:33:24;0.20;;;0.20;;
57155;SDS011;43023;59.928;10.682;2022-09-09T12:35:56;0.00;;;0.00;;
57155;SDS011;43023;59.928;10.682;2022-09-09T12:38:26;0.52;;;0.45;;
57155;SDS011;43023;59.928;10.682;2022-09-09T12:40:56;0.38;;;0.20;;
57155;SDS011;43023;59.928;10.682;2022-09-09T12:43:23;0.20;;;0.03;;
57155;SDS011;43023;59.928;10.682;2022-09-09T12:45:50;0.10;;;0.10;;
57155;SDS011;43023;59.928;10.682;2022-09-09T12:48:21;0.00;;;0.00;;
57155;SDS011;43023;59.928;10.682;2022-09-09T12:50:51;0.38;;;0.20;;
57155;SDS011;43023;59.928;10.682;2022-09-09T12:53:27;0.20;;;0.20;;
57155;SDS011;43023;59.928;10.682;2022-09-09T12:56:01;0.15;;;0.10;;
57155;SDS011;43023;59.928;10.682;2022-09-09T12:58:27;0.10;;;0.10;;
57155;SDS011;43023;59.928;10.682;2022-09-09T13:00:57;1.08;;;0.10;;
57155;SDS011;43023;59.928;10.682;2022-09-09T13:03:25;0.05;;;0.00;;
57155;SDS011;43023;59.928;10.682;2022-09-09T13:05:51;0.10;;;0.10;;
57155;SDS011;43023;59.928;10.682;2022-09-09T13:08:18;0.15;;;0.15;;
57155;SDS011;43023;59.928;10.682;2022-09-09T13:10:51;0.22;;;0.15;;
57155;SDS011;43023;59.928;10.682;2022-09-09T13:13:21;0.20;;;0.10;;
57155;SDS011;43023;59.928;10.682;2022-09-09T13:15:54;0.20;;;0.20;;
57155;SDS011;43023;59.928;10.682;2022-09-09T13:20:47;1.00;;;0.28;;
57155;SDS011;43023;59.928;10.682;2022-09-09T13:23:14;0.30;;;0.10;;
57155;SDS011;43023;59.928;10.682;2022-09-09T13:25:40;0.88;;;0.20;;
57155;SDS011;43023;59.928;10.682;2022-09-09T13:28:19;2.10;;;0.10;;
57155;SDS011;43023;59.928;10.682;2022-09-09T13:30:54;0.10;;;0.10;;
57155;SDS011;43023;59.928;10.682;2022-09-09T13:33:24;0.35;;;0.10;;
57155;SDS011;43023;59.928;10.682;2022-09-09T13:35:56;0.15;;;0.00;;
57155;SDS011;43023;59.928;10.682;2022-09-09T13:38:22;1.45;;;0.32;;
57155;SDS011;43023;59.928;10.682;2022-09-09T13:40:57;0.47;;;0.28;;
57155;SDS011;43023;59.928;10.682;2022-09-09T13:43:24;0.30;;;0.25;;
57155;SDS011;43023;59.928;10.682;2022-09-09T13:45:55;0.05;;;0.05;;
57155;SDS011;43023;59.928;10.682;2022-09-09T13:48:21;0.20;;;0.20;;
57155;SDS011;43023;59.928;10.682;2022-09-09T13:50:55;0.45;;;0.10;;
57155;SDS011;43023;59.928;10.682;2022-09-09T13:53:21;0.47;;;0.10;;
57155;SDS011;43023;59.928;10.682;2022-09-09T13:55:47;0.13;;;0.10;;
57155;SDS011;43023;59.928;10.682;2022-09-09T13:58:16;0.40;;;0.40;;
57155;SDS011;43023;59.928;10.682;2022-09-09T14:00:44;0.98;;;0.20;;
57155;SDS011;43023;59.928;10.682;2022-09-09T14:03:10;0.57;;;0.20;;
57155;SDS011;43023;59.928;10.682;2022-09-09T14:05:36;0.20;;;0.20;;
57155;SDS011;43023;59.928;10.682;2022-09-09T14:08:03;0.13;;;0.13;;
57155;SDS011;43023;59.928;10.682;2022-09-09T14:10:29;0.10;;;0.10;;
57155;SDS011;43023;59.928;10.682;2022-09-09T14:12:56;1.17;;;0.10;;
57155;SDS011;43023;59.928;10.682;2022-09-09T14:15:22;0.10;;;0.10;;
57155;SDS011;43023;59.928;10.682;2022-09-09T14:17:48;0.10;;;0.10;;
57155;SDS011;43023;59.928;10.682;2022-09-09T14:20:14;0.68;;;0.10;;
57155;SDS011;43023;59.928;10.682;2022-09-09T14:22:42;0.65;;;0.10;;
57155;SDS011;43023;59.928;10.682;2022-09-09T14:25:09;0.43;;;0.00;;
57155;SDS011;43023;59.928;10.682;2022-09-09T14:27:36;0.32;;;0.13;;
57155;SDS011;43023;59.928;10.682;2022-09-09T14:30:04;0.00;;;0.00;;
57155;SDS011;43023;59.928;10.682;2022-09-09T14:32:30;0.68;;;0.22;;
57155;SDS011;43023;59.928;10.682;2022-09-09T14:34:56;0.10;;;0.10;;
57155;SDS011;43023;59.928;10.682;2022-09-09T14:37:22;0.10;;;0.10;;
57155;SDS011;43023;59.928;10.682;2022-09-09T14:39:49;1.65;;;0.10;;
57155;SDS011;43023;59.928;10.682;2022-09-09T14:42:15;0.20;;;0.20;;
57155;SDS011;43023;59.928;10.682;2022-09-09T14:44:41;0.30;;;0.20;;
57155;SDS011;43023;59.928;10.682;2022-09-09T14:47:07;0.10;;;0.10;;
57155;SDS011;43023;59.928;10.682;2022-09-09T14:49:34;0.95;;;0.20;;
57155;SDS011;43023;59.928;10.682;2022-09-09T14:52:00;0.90;;;0.13;;
57155;SDS011;43023;59.928;10.682;2022-09-09T14:54:27;0.75;;;0.10;;
57155;SDS011;43023;59.928;10.682;2022-09-09T14:56:54;0.22;;;0.10;;
57155;SDS011;43023;59.928;10.682;2022-09-09T14:59:22;0.40;;;0.10;;
57155;SDS011;43023;59.928;10.682;2022-09-09T15:01:48;0.10;;;0.10;;
57155;SDS011;43023;59.928;10.682;2022-09-09T15:04:14;0.20;;;0.20;;
57155;SDS011;43023;59.928;10.682;2022-09-09T15:06:41;1.48;;;0.30;;
57155;SDS011;43023;59.928;10.682;2022-09-09T15:09:12;0.10;;;0.10;;
57155;SDS011;43023;59.928;10.682;2022-09-09T15:11:38;0.13;;;0.10;;
57155;SDS011;43023;59.928;10.682;2022-09-09T15:14:07;3.95;;;0.20;;
57155;SDS011;43023;59.928;10.682;2022-09-09T15:16:34;0.13;;;0.05;;
57155;SDS011;43023;59.928;10.682;2022-09-09T15:19:00;3.03;;;0.38;;
57155;SDS011;43023;59.928;10.682;2022-09-09T15:21:28;0.32;;;0.20;;
57155;SDS011;43023;59.928;10.682;2022-09-09T15:23:54;0.00;;;0.00;;
57155;SDS011;43023;59.928;10.682;2022-09-09T15:26:21;0.10;;;0.10;;
57155;SDS011;43023;59.928;10.682;2022-09-09T15:28:47;0.30;;;0.13;;
57155;SDS011;43023;59.928;10.682;2022-09-09T15:31:19;0.28;;;0.20;;
57155;SDS011;43023;59.928;10.682;2022-09-09T15:36:15;0.82;;;0.10;;
57155;SDS011;43023;59.928;10.682;2022-09-09T15:38:41;0.45;;;0.20;;
57155;SDS011;43023;59.928;10.682;2022-09-09T15:41:08;5.85;;;0.40;;
57155;SDS011;43023;59.928;10.682;2022-09-09T15:43:35;3.85;;;0.43;;
57155;SDS011;43023;59.928;10.682;2022-09-09T15:46:05;4.47;;;0.30;;
57155;SDS011;43023;59.928;10.682;2022-09-09T15:48:33;1.30;;;0.50;;
57155;SDS011;43023;59.928;10.682;2022-09-09T15:51:03;5.15;;;0.80;;
57155;SDS011;43023;59.928;10.682;2022-09-09T15:53:30;7.00;;;0.88;;
57155;SDS011;43023;59.928;10.682;2022-09-09T15:55:57;7.60;;;0.90;;
57155;SDS011;43023;59.928;10.682;2022-09-09T15:58:24;6.40;;;0.95;;
57155;SDS011;43023;59.928;10.682;2022-09-09T16:00:50;5.10;;;1.50;;
57155;SDS011;43023;59.928;10.682;2022-09-09T16:03:16;5.72;;;1.65;;
57155;SDS011;43023;59.928;10.682;2022-09-09T16:05:42;6.05;;;0.85;;
57155;SDS011;43023;59.928;10.682;2022-09-09T16:08:08;7.13;;;1.90;;
57155;SDS011;43023;59.928;10.682;2022-09-09T16:10:34;3.67;;;1.02;;
57155;SDS011;43023;59.928;10.682;2022-09-09T16:13:01;2.60;;;0.70;;
57155;SDS011;43023;59.928;10.682;2022-09-09T16:15:27;3.30;;;1.20;;
57155;SDS011;43023;59.928;10.682;2022-09-09T16:17:53;4.95;;;0.98;;
57155;SDS011;43023;59.928;10.682;2022-09-09T16:20:19;2.45;;;0.75;;
57155;SDS011;43023;59.928;10.682;2022-09-09T16:22:45;2.20;;;1.08;;
57155;SDS011;43023;59.928;10.682;2022-09-09T16:25:12;3.47;;;0.60;;
57155;SDS011;43023;59.928;10.682;2022-09-09T16:27:38;4.55;;;0.95;;
57155;SDS011;43023;59.928;10.682;2022-09-09T16:30:04;2.15;;;0.77;;
57155;SDS011;43023;59.928;10.682;2022-09-09T16:32:30;10.88;;;1.67;;
57155;SDS011;43023;59.928;10.682;2022-09-09T16:34:56;1.15;;;0.82;;
57155;SDS011;43023;59.928;10.682;2022-09-09T16:37:22;6.40;;;0.65;;
57155;SDS011;43023;59.928;10.682;2022-09-09T16:39:48;2.13;;;0.47;;
57155;SDS011;43023;59.928;10.682;2022-09-09T16:42:15;5.65;;;0.73;;
57155;SDS011;43023;59.928;10.682;2022-09-09T16:44:42;1.85;;;0.50;;
57155;SDS011;43023;59.928;10.682;2022-09-09T16:47:08;2.95;;;0.95;;
57155;SDS011;43023;59.928;10.682;2022-09-09T16:49:34;3.00;;;0.40;;
57155;SDS011;43023;59.928;10.682;2022-09-09T16:52:00;7.65;;;1.35;;
57155;SDS011;43023;59.928;10.682;2022-09-09T16:54:26;3.33;;;0.77;;
57155;SDS011;43023;59.928;10.682;2022-09-09T16:56:52;2.33;;;0.70;;
57155;SDS011;43023;59.928;10.682;2022-09-09T16:59:19;2.25;;;0.68;;
57155;SDS011;43023;59.928;10.682;2022-09-09T17:01:46;5.50;;;1.30;;
57155;SDS011;43023;59.928;10.682;2022-09-09T17:04:13;5.00;;;0.90;;